createdAt,value
2022-08-23T00:00:16.292Z,20.10
2022-08-23T00:01:16.113Z,20.08
2022-08-23T00:02:23.862Z,20.03
2022-08-23T00:03:17.125Z,20.01
2022-08-23T00:04:16.084Z,19.98
2022-08-23T00:05:16.064Z,19.95
2022-08-23T00:06:16.065Z,19.92
2022-08-23T00:07:16.046Z,19.91
2022-08-23T00:08:16.044Z,19.87
2022-08-23T00:09:16.014Z,19.91
2022-08-23T00:10:16.031Z,19.88
2022-08-23T00:11:16.362Z,19.86
2022-08-23T00:12:16.003Z,19.84
2022-08-23T00:13:15.975Z,19.81
2022-08-23T00:14:15.975Z,19.80
2022-08-23T00:15:15.944Z,19.76
2022-08-23T00:16:15.946Z,19.69
2022-08-23T00:17:30.981Z,19.65
2022-08-23T00:18:16.932Z,19.56
2022-08-23T00:19:15.905Z,19.54
2022-08-23T00:20:15.914Z,19.46
2022-08-23T00:21:15.905Z,19.40
2022-08-23T00:22:15.884Z,19.29
2022-08-23T00:23:15.864Z,19.14
2022-08-23T00:24:15.884Z,19.00
2022-08-23T00:25:15.834Z,18.90
2022-08-23T00:26:15.833Z,18.87
2022-08-23T00:27:15.814Z,18.81
2022-08-23T00:28:15.817Z,18.75
2022-08-23T00:29:15.786Z,18.66
2022-08-23T00:30:15.797Z,18.60
2022-08-23T00:31:15.757Z,18.52
2022-08-23T00:32:15.774Z,18.50
2022-08-23T00:33:15.793Z,18.48
2022-08-23T00:34:15.745Z,18.45
2022-08-23T00:35:26.284Z,18.39
2022-08-23T00:36:16.716Z,18.35
2022-08-23T00:37:15.698Z,18.33
2022-08-23T00:38:34.196Z,18.23
2022-08-23T00:39:16.666Z,18.12
2022-08-23T00:40:15.726Z,18.11
2022-08-23T00:41:15.646Z,18.10
2022-08-23T00:42:15.646Z,18.02
2022-08-23T00:43:15.617Z,18.02
2022-08-23T00:44:15.628Z,17.97
2022-08-23T00:45:15.596Z,17.93
2022-08-23T00:46:15.605Z,17.92
2022-08-23T00:47:15.577Z,17.92
2022-08-23T00:48:15.585Z,17.92
2022-08-23T00:49:15.557Z,17.90
2022-08-23T00:50:19.247Z,17.84
2022-08-23T00:51:16.551Z,17.78
2022-08-23T00:52:15.539Z,17.77
2022-08-23T00:53:15.549Z,17.77
2022-08-23T00:54:15.507Z,17.71
2022-08-23T00:55:15.488Z,17.63
2022-08-23T00:56:15.490Z,17.62
2022-08-23T00:57:15.467Z,17.59
2022-08-23T00:58:15.494Z,17.58
2022-08-23T00:59:15.447Z,17.54
2022-08-23T01:00:15.447Z,17.51
2022-08-23T01:01:15.564Z,17.49
2022-08-23T01:02:15.417Z,17.49
2022-08-23T01:03:15.792Z,17.46
2022-08-23T01:04:15.396Z,17.44
2022-08-23T01:05:15.370Z,17.43
2022-08-23T01:06:15.377Z,17.43
2022-08-23T01:07:15.357Z,17.40
2022-08-23T01:08:15.347Z,17.40
2022-08-23T01:09:15.331Z,17.38
2022-08-23T01:10:19.985Z,17.37
2022-08-23T01:11:16.308Z,17.36
2022-08-23T01:12:15.309Z,17.36
2022-08-23T01:13:15.289Z,17.37
2022-08-23T01:14:15.288Z,17.37
2022-08-23T01:15:15.257Z,17.36
2022-08-23T01:16:15.265Z,17.30
2022-08-23T01:17:15.239Z,17.34
2022-08-23T01:18:15.247Z,17.38
2022-08-23T01:19:15.208Z,17.40
2022-08-23T01:20:15.213Z,17.40
2022-08-23T01:21:15.189Z,17.37
2022-08-23T01:22:15.218Z,17.36
2022-08-23T01:23:15.179Z,17.36
2022-08-23T01:24:41.154Z,17.34
2022-08-23T01:25:16.148Z,17.28
2022-08-23T01:26:15.148Z,17.21
2022-08-23T01:27:16.129Z,17.19
2022-08-23T01:28:15.139Z,17.16
2022-08-23T01:29:15.098Z,17.18
2022-08-23T01:30:15.109Z,17.16
2022-08-23T01:31:15.079Z,17.15
2022-08-23T01:32:15.087Z,17.11
2022-08-23T01:33:15.097Z,17.08
2022-08-23T01:34:15.280Z,17.01
2022-08-23T01:35:15.053Z,16.93
2022-08-23T01:36:15.019Z,16.88
2022-08-23T01:37:15.032Z,16.82
2022-08-23T01:38:15.017Z,16.78
2022-08-23T01:39:15.002Z,16.78
2022-08-23T01:40:15.026Z,16.71
2022-08-23T01:41:14.979Z,16.67
2022-08-23T01:42:14.959Z,16.67
2022-08-23T01:43:15.039Z,16.68
2022-08-23T01:44:14.941Z,16.67
2022-08-23T01:45:14.940Z,16.64
2022-08-23T01:46:14.909Z,16.63
2022-08-23T01:47:14.920Z,16.61
2022-08-23T01:48:14.900Z,16.61
2022-08-23T01:49:14.898Z,16.61
2022-08-23T01:50:14.878Z,16.63
2022-08-23T01:51:14.871Z,16.60
2022-08-23T01:52:14.840Z,16.58
2022-08-23T01:53:14.849Z,16.58
2022-08-23T01:54:14.819Z,16.57
2022-08-23T01:55:14.829Z,16.58
2022-08-23T01:56:14.804Z,16.66
2022-08-23T01:57:14.800Z,16.75
2022-08-23T01:58:14.773Z,16.78
2022-08-23T01:59:14.782Z,16.79
2022-08-23T02:00:14.752Z,16.76
2022-08-23T02:01:14.798Z,16.73
2022-08-23T02:02:14.741Z,16.70
2022-08-23T02:03:14.732Z,16.66
2022-08-23T02:04:14.712Z,16.63
2022-08-23T02:05:14.709Z,16.63
2022-08-23T02:06:14.688Z,16.57
2022-08-23T02:07:14.718Z,16.53
2022-08-23T02:08:15.531Z,16.56
2022-08-23T02:09:17.491Z,16.53
2022-08-23T02:10:14.640Z,16.53
2022-08-23T02:11:14.640Z,16.48
2022-08-23T02:12:14.620Z,16.45
2022-08-23T02:13:14.642Z,16.42
2022-08-23T02:14:14.604Z,16.39
2022-08-23T02:15:14.614Z,16.34
2022-08-23T02:16:14.957Z,16.30
2022-08-23T02:17:14.571Z,16.27
2022-08-23T02:18:14.551Z,16.25
2022-08-23T02:19:14.548Z,16.23
2022-08-23T02:20:14.531Z,16.21
2022-08-23T02:21:14.532Z,16.20
2022-08-23T02:22:14.512Z,16.20
2022-08-23T02:23:14.510Z,16.17
2022-08-23T02:24:14.480Z,16.11
2022-08-23T02:25:14.491Z,16.08
2022-08-23T02:26:14.610Z,16.05
2022-08-23T02:27:14.472Z,16.02
2022-08-23T02:28:14.441Z,16.02
2022-08-23T02:29:14.442Z,15.97
2022-08-23T02:30:14.413Z,15.97
2022-08-23T02:31:14.542Z,15.97
2022-08-23T02:32:14.392Z,15.96
2022-08-23T02:33:14.400Z,15.94
2022-08-23T02:34:14.381Z,15.96
2022-08-23T02:35:14.372Z,15.94
2022-08-23T02:36:14.408Z,15.94
2022-08-23T02:37:14.366Z,15.92
2022-08-23T02:38:14.382Z,15.90
2022-08-23T02:39:14.352Z,15.90
2022-08-23T02:40:14.336Z,15.87
2022-08-23T02:41:14.302Z,15.87
2022-08-23T02:42:14.280Z,15.86
2022-08-23T02:43:14.281Z,15.84
2022-08-23T02:44:14.252Z,15.86
2022-08-23T02:45:14.283Z,15.84
2022-08-23T02:46:14.233Z,15.82
2022-08-23T02:47:14.232Z,15.78
2022-08-23T02:48:15.024Z,15.75
2022-08-23T02:49:14.213Z,15.75
2022-08-23T02:50:14.202Z,15.72
2022-08-23T02:51:14.190Z,15.71
2022-08-23T02:52:14.177Z,15.69
2022-08-23T02:53:14.867Z,15.68
2022-08-23T02:54:14.143Z,15.67
2022-08-23T02:55:14.702Z,15.67
2022-08-23T02:56:21.267Z,15.68
2022-08-23T02:57:15.122Z,15.67
2022-08-23T02:58:14.102Z,15.64
2022-08-23T02:59:14.983Z,15.62
2022-08-23T03:00:14.083Z,15.62
2022-08-23T03:01:14.084Z,15.60
2022-08-23T03:02:14.071Z,15.57
2022-08-23T03:03:14.053Z,15.59
2022-08-23T03:04:14.352Z,15.59
2022-08-23T03:05:14.262Z,15.54
2022-08-23T03:06:24.783Z,15.51
2022-08-23T03:07:15.002Z,15.51
2022-08-23T03:08:13.991Z,15.47
2022-08-23T03:09:14.063Z,15.44
2022-08-23T03:10:14.083Z,15.41
2022-08-23T03:11:14.102Z,15.38
2022-08-23T03:12:13.936Z,15.35
2022-08-23T03:13:13.943Z,15.35
2022-08-23T03:14:13.913Z,15.34
2022-08-23T03:15:14.735Z,15.34
2022-08-23T03:16:14.633Z,15.32
2022-08-23T03:17:14.608Z,15.29
2022-08-23T03:18:13.883Z,15.28
2022-08-23T03:19:13.878Z,15.31
2022-08-23T03:20:13.870Z,15.34
2022-08-23T03:21:14.665Z,15.32
2022-08-23T03:22:13.826Z,15.31
2022-08-23T03:23:13.833Z,15.32
2022-08-23T03:24:13.793Z,15.32
2022-08-23T03:25:13.805Z,15.29
2022-08-23T03:26:13.783Z,15.28
2022-08-23T03:27:13.781Z,15.31
2022-08-23T03:28:13.753Z,15.31
2022-08-23T03:29:13.753Z,15.29
2022-08-23T03:30:19.235Z,15.29
2022-08-23T03:31:14.738Z,15.29
2022-08-23T03:32:15.460Z,15.31
2022-08-23T03:33:13.712Z,15.34
2022-08-23T03:34:13.683Z,15.36
2022-08-23T03:35:15.183Z,15.36
2022-08-23T03:36:14.504Z,15.35
2022-08-23T03:37:14.414Z,15.27
2022-08-23T03:38:13.763Z,15.25
2022-08-23T03:39:13.633Z,15.21
2022-08-23T03:40:13.679Z,15.20
2022-08-23T03:41:13.622Z,15.17
2022-08-23T03:42:14.004Z,15.17
2022-08-23T03:43:14.415Z,15.19
2022-08-23T03:44:14.114Z,15.17
2022-08-23T03:45:13.564Z,15.17
2022-08-23T03:46:13.626Z,15.16
2022-08-23T03:47:13.545Z,15.16
2022-08-23T03:48:14.375Z,15.11
2022-08-23T03:49:13.743Z,15.10
2022-08-23T03:50:13.744Z,15.03
2022-08-23T03:51:13.495Z,15.03
2022-08-23T03:52:14.260Z,15.01
2022-08-23T03:53:13.502Z,14.99
2022-08-23T03:54:14.312Z,14.96
2022-08-23T03:55:13.469Z,14.96
2022-08-23T03:56:14.375Z,14.95
2022-08-23T03:57:14.313Z,14.94
2022-08-23T03:58:13.427Z,14.91
2022-08-23T03:59:14.353Z,14.89
2022-08-23T04:00:13.395Z,14.89
2022-08-23T04:01:13.399Z,14.88
2022-08-23T04:02:13.414Z,14.89
2022-08-23T04:03:13.394Z,14.89
2022-08-23T04:04:13.372Z,14.89
2022-08-23T04:05:14.164Z,14.86
2022-08-23T04:06:14.185Z,14.83
2022-08-23T04:07:13.332Z,14.81
2022-08-23T04:08:13.304Z,14.83
2022-08-23T04:09:13.293Z,14.83
2022-08-23T04:10:13.277Z,14.83
2022-08-23T04:11:14.215Z,14.81
2022-08-23T04:12:17.459Z,14.80
2022-08-23T04:13:13.243Z,14.78
2022-08-23T04:14:13.256Z,14.78
2022-08-23T04:15:13.227Z,14.77
2022-08-23T04:16:13.615Z,14.75
2022-08-23T04:17:14.164Z,14.73
2022-08-23T04:18:13.227Z,14.73
2022-08-23T04:19:13.173Z,14.72
2022-08-23T04:20:13.345Z,14.70
2022-08-23T04:21:13.164Z,14.68
2022-08-23T04:22:13.146Z,14.65
2022-08-23T04:23:13.163Z,14.69
2022-08-23T04:24:13.097Z,14.73
2022-08-23T04:25:33.013Z,14.73
2022-08-23T04:26:14.078Z,14.78
2022-08-23T04:27:13.077Z,14.78
2022-08-23T04:28:13.090Z,14.80
2022-08-23T04:29:13.056Z,14.81
2022-08-23T04:30:14.034Z,14.83
2022-08-23T04:31:13.033Z,14.84
2022-08-23T04:32:13.005Z,14.84
2022-08-23T04:33:17.707Z,14.81
2022-08-23T04:34:12.997Z,14.80
2022-08-23T04:35:13.063Z,14.78
2022-08-23T04:36:12.961Z,14.78
2022-08-23T04:37:13.346Z,14.75
2022-08-23T04:38:24.736Z,14.72
2022-08-23T04:39:14.697Z,14.72
2022-08-23T04:40:12.998Z,14.70
2022-08-23T04:41:13.648Z,14.69
2022-08-23T04:42:15.016Z,14.68
2022-08-23T04:43:12.896Z,14.65
2022-08-23T04:44:12.885Z,14.62
2022-08-23T04:45:13.767Z,14.61
2022-08-23T04:46:12.856Z,14.57
2022-08-23T04:47:12.926Z,14.58
2022-08-23T04:48:13.126Z,14.60
2022-08-23T04:49:12.826Z,14.61
2022-08-23T04:50:12.817Z,14.61
2022-08-23T04:51:12.806Z,14.61
2022-08-23T04:52:15.118Z,14.61
2022-08-23T04:53:14.196Z,14.62
2022-08-23T04:54:13.525Z,14.62
2022-08-23T04:55:13.802Z,14.62
2022-08-23T04:56:13.275Z,14.64
2022-08-23T04:57:13.596Z,14.68
2022-08-23T04:58:12.728Z,14.68
2022-08-23T04:59:13.156Z,14.70
2022-08-23T05:00:12.696Z,14.69
2022-08-23T05:01:12.764Z,14.69
2022-08-23T05:02:13.453Z,14.72
2022-08-23T05:03:12.706Z,14.70
2022-08-23T05:04:12.638Z,14.69
2022-08-23T05:05:12.643Z,14.70
2022-08-23T05:06:13.372Z,14.70
2022-08-23T05:07:13.457Z,14.75
2022-08-23T05:08:12.597Z,14.72
2022-08-23T05:09:15.089Z,14.73
2022-08-23T05:10:13.667Z,14.75
2022-08-23T05:11:12.664Z,14.77
2022-08-23T05:12:13.485Z,14.77
2022-08-23T05:13:12.676Z,14.77
2022-08-23T05:14:12.527Z,14.80
2022-08-23T05:15:12.518Z,14.81
2022-08-23T05:16:13.167Z,14.83
2022-08-23T05:17:12.701Z,14.84
2022-08-23T05:18:12.475Z,14.88
2022-08-23T05:19:12.500Z,14.86
2022-08-23T05:20:12.468Z,14.88
2022-08-23T05:21:12.456Z,14.89
2022-08-23T05:22:13.108Z,14.94
2022-08-23T05:23:13.189Z,14.95
2022-08-23T05:24:13.741Z,14.96
2022-08-23T05:25:12.411Z,14.98
2022-08-23T05:26:12.387Z,15.02
2022-08-23T05:27:13.723Z,15.06
2022-08-23T05:28:12.661Z,15.10
2022-08-23T05:29:12.718Z,15.14
2022-08-23T05:30:15.401Z,15.17
2022-08-23T05:31:12.327Z,15.19
2022-08-23T05:32:12.327Z,15.21
2022-08-23T05:33:12.307Z,15.28
2022-08-23T05:34:12.987Z,15.32
2022-08-23T05:35:12.307Z,15.34
2022-08-23T05:36:12.257Z,15.38
2022-08-23T05:37:12.266Z,15.43
2022-08-23T05:38:12.248Z,15.47
2022-08-23T05:39:13.012Z,15.53
2022-08-23T05:40:13.974Z,15.57
2022-08-23T05:41:12.457Z,15.64
2022-08-23T05:42:12.177Z,15.71
2022-08-23T05:43:12.190Z,15.80
2022-08-23T05:44:12.406Z,15.92
2022-08-23T05:45:12.882Z,16.02
2022-08-23T05:46:12.728Z,16.08
2022-08-23T05:47:12.144Z,16.17
2022-08-23T05:48:12.109Z,16.25
2022-08-23T05:49:12.130Z,16.33
2022-08-23T05:50:12.229Z,16.42
2022-08-23T05:51:12.810Z,16.50
2022-08-23T05:52:12.116Z,16.61
2022-08-23T05:53:12.091Z,16.67
2022-08-23T05:54:12.061Z,16.79
2022-08-23T05:55:12.028Z,16.86
2022-08-23T05:56:12.839Z,16.93
2022-08-23T05:57:12.027Z,17.01
2022-08-23T05:58:12.017Z,17.07
2022-08-23T05:59:12.744Z,17.16
2022-08-23T06:00:12.007Z,17.19
2022-08-23T06:01:12.034Z,17.26
2022-08-23T06:02:11.998Z,17.33
2022-08-23T06:03:11.951Z,17.38
2022-08-23T06:04:11.947Z,17.43
2022-08-23T06:05:11.918Z,17.52
2022-08-23T06:06:11.925Z,17.62
2022-08-23T06:07:12.809Z,17.68
2022-08-23T06:08:11.918Z,17.74
2022-08-23T06:09:11.878Z,17.78
2022-08-23T06:10:15.989Z,17.84
2022-08-23T06:11:11.849Z,17.87
2022-08-23T06:12:11.860Z,17.92
2022-08-23T06:13:11.837Z,17.97
2022-08-23T06:14:11.880Z,18.05
2022-08-23T06:15:11.818Z,18.10
2022-08-23T06:16:15.098Z,18.15
2022-08-23T06:17:11.798Z,18.23
2022-08-23T06:18:12.305Z,18.30
2022-08-23T06:19:11.810Z,18.39
2022-08-23T06:20:12.243Z,18.47
2022-08-23T06:21:12.198Z,18.57
2022-08-23T06:22:11.898Z,18.66
2022-08-23T06:23:12.098Z,18.75
2022-08-23T06:24:11.753Z,18.84
2022-08-23T06:25:11.713Z,18.90
2022-08-23T06:26:11.696Z,18.94
2022-08-23T06:27:11.669Z,19.00
2022-08-23T06:28:11.669Z,19.04
2022-08-23T06:29:12.511Z,19.11
2022-08-23T06:30:13.242Z,19.19
2022-08-23T06:31:11.739Z,19.23
2022-08-23T06:32:12.523Z,19.31
2022-08-23T06:33:12.359Z,19.37
2022-08-23T06:34:12.563Z,19.44
2022-08-23T06:35:33.182Z,19.48
2022-08-23T06:36:12.579Z,19.54
2022-08-23T06:37:11.560Z,19.61
2022-08-23T06:38:11.807Z,19.71
2022-08-23T06:39:11.530Z,19.78
2022-08-23T06:40:12.526Z,19.86
2022-08-23T06:41:11.531Z,19.96
2022-08-23T06:42:34.804Z,20.08
2022-08-23T06:43:12.490Z,20.17
2022-08-23T06:44:11.492Z,20.28
2022-08-23T06:45:11.461Z,20.33
2022-08-23T06:46:11.784Z,20.39
2022-08-23T06:47:11.440Z,20.47
2022-08-23T06:48:13.867Z,20.54
2022-08-23T06:49:11.420Z,20.59
2022-08-23T06:50:11.421Z,20.64
2022-08-23T06:51:11.390Z,20.69
2022-08-23T06:52:11.429Z,20.73
2022-08-23T06:53:11.370Z,20.79
2022-08-23T06:54:11.371Z,20.84
2022-08-23T06:55:13.804Z,20.89
2022-08-23T06:56:11.361Z,20.95
2022-08-23T06:57:11.330Z,21.01
2022-08-23T06:58:12.540Z,21.01
2022-08-23T06:59:11.311Z,21.09
2022-08-23T07:00:11.750Z,21.14
2022-08-23T07:01:28.582Z,21.25
2022-08-23T07:02:12.393Z,21.35
2022-08-23T07:03:11.368Z,21.46
2022-08-23T07:04:11.268Z,21.50
2022-08-23T07:05:11.242Z,21.58
2022-08-23T07:06:11.241Z,21.62
2022-08-23T07:07:12.131Z,21.69
2022-08-23T07:08:11.221Z,21.79
2022-08-23T07:09:11.195Z,21.86
2022-08-23T07:10:11.234Z,21.94
2022-08-23T07:11:11.173Z,21.99
2022-08-23T07:12:11.173Z,21.99
2022-08-23T07:13:11.151Z,21.92
2022-08-23T07:14:11.152Z,21.90
2022-08-23T07:15:11.134Z,21.96
2022-08-23T07:16:11.167Z,22.06
2022-08-23T07:17:11.102Z,22.10
2022-08-23T07:18:11.101Z,22.14
2022-08-23T07:19:11.081Z,22.20
2022-08-23T07:20:11.088Z,22.25
2022-08-23T07:21:11.065Z,22.31
2022-08-23T07:22:11.061Z,22.30
2022-08-23T07:23:11.043Z,22.36
2022-08-23T07:24:11.039Z,22.42
2022-08-23T07:25:11.041Z,22.54
2022-08-23T07:26:11.029Z,22.64
2022-08-23T07:27:10.991Z,22.72
2022-08-23T07:28:11.797Z,22.80
2022-08-23T07:29:10.973Z,22.86
2022-08-23T07:30:10.974Z,22.91
2022-08-23T07:31:14.560Z,23.00
2022-08-23T07:32:11.010Z,23.09
2022-08-23T07:33:10.914Z,23.15
2022-08-23T07:34:10.923Z,23.19
2022-08-23T07:35:10.894Z,23.23
2022-08-23T07:36:10.902Z,23.28
2022-08-23T07:37:11.274Z,23.33
2022-08-23T07:38:10.873Z,23.36
2022-08-23T07:39:10.858Z,23.43
2022-08-23T07:40:10.897Z,23.57
2022-08-23T07:41:11.834Z,23.63
2022-08-23T07:42:23.921Z,23.68
2022-08-23T07:43:11.803Z,23.75
2022-08-23T07:44:10.806Z,23.80
2022-08-23T07:45:12.920Z,23.87
2022-08-23T07:46:12.537Z,23.94
2022-08-23T07:47:10.763Z,23.97
2022-08-23T07:48:10.772Z,24.00
2022-08-23T07:49:10.734Z,24.06
2022-08-23T07:50:10.744Z,24.09
2022-08-23T07:51:10.757Z,24.13
2022-08-23T07:52:12.117Z,24.16
2022-08-23T07:53:10.704Z,24.21
2022-08-23T07:54:10.716Z,24.22
2022-08-23T07:55:10.702Z,24.24
2022-08-23T07:56:10.692Z,24.21
2022-08-23T07:57:10.654Z,24.24
2022-08-23T07:58:10.684Z,24.22
2022-08-23T07:59:10.640Z,24.40
2022-08-23T08:00:10.642Z,24.64
2022-08-23T08:01:10.616Z,24.77
2022-08-23T08:02:11.568Z,24.76
2022-08-23T08:03:11.316Z,24.80
2022-08-23T08:04:10.587Z,24.85
2022-08-23T08:05:10.566Z,24.88
2022-08-23T08:06:10.565Z,24.98
2022-08-23T08:07:19.303Z,25.05
2022-08-23T08:08:11.538Z,25.13
2022-08-23T08:09:10.515Z,25.09
2022-08-23T08:10:10.517Z,25.03
2022-08-23T08:11:10.498Z,25.09
2022-08-23T08:12:10.496Z,25.17
2022-08-23T08:13:10.466Z,25.28
2022-08-23T08:14:10.555Z,25.39
2022-08-23T08:15:10.448Z,25.47
2022-08-23T08:16:10.516Z,25.51
2022-08-23T08:17:10.430Z,25.54
2022-08-23T08:18:10.435Z,25.57
2022-08-23T08:19:10.436Z,25.60
2022-08-23T08:20:10.407Z,25.62
2022-08-23T08:21:10.389Z,25.70
2022-08-23T08:22:10.385Z,25.79
2022-08-23T08:23:10.359Z,25.91
2022-08-23T08:24:10.358Z,25.97
2022-08-23T08:25:10.338Z,26.02
2022-08-23T08:26:10.347Z,26.10
2022-08-23T08:27:10.308Z,26.15
2022-08-23T08:28:15.575Z,26.20
2022-08-23T08:29:11.288Z,26.10
2022-08-23T08:30:10.506Z,25.97
2022-08-23T08:31:10.328Z,25.94
2022-08-23T08:32:13.955Z,25.91
2022-08-23T08:33:10.240Z,25.88
2022-08-23T08:34:10.238Z,25.97
2022-08-23T08:35:10.220Z,26.01
2022-08-23T08:36:10.250Z,26.12
2022-08-23T08:37:10.198Z,26.18
2022-08-23T08:38:10.200Z,26.18
2022-08-23T08:39:10.404Z,26.23
2022-08-23T08:40:10.260Z,26.26
2022-08-23T08:41:10.160Z,26.33
2022-08-23T08:42:10.159Z,26.43
2022-08-23T08:43:10.187Z,26.54
2022-08-23T08:44:12.713Z,26.65
2022-08-23T08:45:10.110Z,26.58
2022-08-23T08:46:10.925Z,26.60
2022-08-23T08:47:10.360Z,26.60
2022-08-23T08:48:13.405Z,26.60
2022-08-23T08:49:10.069Z,26.69
2022-08-23T08:50:10.068Z,26.80
2022-08-23T08:51:10.041Z,26.87
2022-08-23T08:52:10.057Z,26.92
2022-08-23T08:53:10.023Z,27.03
2022-08-23T08:54:10.030Z,27.12
2022-08-23T08:55:09.991Z,27.18
2022-08-23T08:56:10.237Z,27.13
2022-08-23T08:57:10.821Z,27.09
2022-08-23T08:58:10.193Z,27.24
2022-08-23T08:59:09.951Z,27.31
2022-08-23T09:00:09.960Z,27.40
2022-08-23T09:01:09.931Z,27.43
2022-08-23T09:02:31.962Z,27.57
2022-08-23T09:03:10.997Z,27.67
2022-08-23T09:04:09.919Z,27.74
2022-08-23T09:05:09.885Z,27.79
2022-08-23T09:06:09.882Z,27.85
2022-08-23T09:07:09.872Z,27.94
2022-08-23T09:08:10.795Z,27.93
2022-08-23T09:09:09.874Z,27.87
2022-08-23T09:10:09.852Z,27.88
2022-08-23T09:11:09.825Z,27.94
2022-08-23T09:12:10.021Z,27.99
2022-08-23T09:13:09.793Z,28.00
2022-08-23T09:14:09.824Z,28.03
2022-08-23T09:15:09.791Z,28.07
2022-08-23T09:16:09.827Z,28.11
2022-08-23T09:17:09.753Z,28.14
2022-08-23T09:18:09.754Z,28.22
2022-08-23T09:19:10.506Z,28.39
2022-08-23T09:20:09.767Z,28.48
2022-08-23T09:21:09.733Z,28.66
2022-08-23T09:22:09.713Z,28.80
2022-08-23T09:23:09.704Z,28.89
2022-08-23T09:24:10.537Z,28.88
2022-08-23T09:25:10.316Z,28.81
2022-08-23T09:26:09.674Z,28.80
2022-08-23T09:27:10.519Z,28.80
2022-08-23T09:28:09.670Z,28.81
2022-08-23T09:29:09.636Z,28.80
2022-08-23T09:30:10.475Z,28.76
2022-08-23T09:31:09.678Z,28.67
2022-08-23T09:32:09.614Z,28.70
2022-08-23T09:33:09.576Z,28.78
2022-08-23T09:34:09.585Z,28.86
2022-08-23T09:35:09.555Z,28.88
2022-08-23T09:36:09.736Z,28.89
2022-08-23T09:37:09.811Z,28.90
2022-08-23T09:38:09.747Z,28.92
2022-08-23T09:39:09.517Z,28.98
2022-08-23T09:40:09.544Z,29.02
2022-08-23T09:41:09.507Z,29.05
2022-08-23T09:42:09.566Z,29.09
2022-08-23T09:43:09.716Z,29.18
2022-08-23T09:44:10.423Z,29.26
2022-08-23T09:45:09.516Z,29.31
2022-08-23T09:46:10.287Z,29.36
2022-08-23T09:47:10.198Z,29.36
2022-08-23T09:48:10.317Z,29.34
2022-08-23T09:49:09.596Z,29.19
2022-08-23T09:50:10.348Z,28.95
2022-08-23T09:51:09.397Z,28.81
2022-08-23T09:52:10.158Z,28.71
2022-08-23T09:53:10.127Z,28.76
2022-08-23T09:54:09.378Z,28.68
2022-08-23T09:55:10.122Z,28.74
2022-08-23T09:56:09.341Z,29.00
2022-08-23T09:57:10.190Z,29.19
2022-08-23T09:58:10.096Z,29.24
2022-08-23T09:59:09.859Z,29.27
2022-08-23T10:00:10.154Z,29.21
2022-08-23T10:01:10.124Z,29.19
2022-08-23T10:02:09.850Z,29.26
2022-08-23T10:03:10.121Z,29.34
2022-08-23T10:04:10.146Z,29.30
2022-08-23T10:05:13.293Z,29.41
2022-08-23T10:06:11.110Z,29.46
2022-08-23T10:07:09.243Z,29.51
2022-08-23T10:08:10.867Z,29.63
2022-08-23T10:09:10.059Z,29.55
2022-08-23T10:10:09.211Z,29.39
2022-08-23T10:11:10.123Z,29.55
2022-08-23T10:12:09.150Z,29.83
2022-08-23T10:13:09.148Z,30.00
2022-08-23T10:14:09.362Z,30.07
2022-08-23T10:15:09.235Z,30.15
2022-08-23T10:16:09.316Z,30.19
2022-08-23T10:17:09.113Z,30.22
2022-08-23T10:18:09.980Z,30.22
2022-08-23T10:19:09.113Z,30.23
2022-08-23T10:20:09.062Z,30.24
2022-08-23T10:21:09.070Z,30.23
2022-08-23T10:22:09.035Z,30.24
2022-08-23T10:23:10.051Z,30.26
2022-08-23T10:24:09.917Z,30.26
2022-08-23T10:25:09.800Z,30.08
2022-08-23T10:26:09.012Z,30.19
2022-08-23T10:27:09.004Z,29.95
2022-08-23T10:28:08.974Z,29.98
2022-08-23T10:29:08.983Z,30.01
2022-08-23T10:30:08.963Z,30.05
2022-08-23T10:31:09.807Z,30.16
2022-08-23T10:32:09.713Z,30.26
2022-08-23T10:33:08.974Z,30.29
2022-08-23T10:34:10.781Z,30.37
2022-08-23T10:35:08.953Z,30.46
2022-08-23T10:36:09.773Z,30.53
2022-08-23T10:37:08.912Z,30.55
2022-08-23T10:38:09.693Z,30.64
2022-08-23T10:39:09.068Z,30.67
2022-08-23T10:40:08.970Z,30.73
2022-08-23T10:41:09.145Z,30.80
2022-08-23T10:42:09.145Z,30.83
2022-08-23T10:43:08.814Z,30.89
2022-08-23T10:44:08.955Z,30.84
2022-08-23T10:45:08.815Z,30.82
2022-08-23T10:46:09.019Z,30.83
2022-08-23T10:47:09.475Z,30.84
2022-08-23T10:48:08.776Z,30.77
2022-08-23T10:49:09.591Z,30.60
2022-08-23T10:50:08.907Z,30.64
2022-08-23T10:51:08.786Z,30.70
2022-08-23T10:52:09.516Z,30.67
2022-08-23T10:53:09.429Z,30.75
2022-08-23T10:54:08.715Z,30.89
2022-08-23T10:55:08.726Z,30.92
2022-08-23T10:56:08.789Z,30.99
2022-08-23T10:57:08.747Z,31.07
2022-08-23T10:58:08.646Z,31.10
2022-08-23T10:59:08.760Z,31.17
2022-08-23T11:00:08.764Z,31.13
2022-08-23T11:01:08.733Z,31.12
2022-08-23T11:02:08.673Z,31.28
2022-08-23T11:03:08.687Z,31.46
2022-08-23T11:04:08.797Z,31.41
2022-08-23T11:05:08.811Z,31.36
2022-08-23T11:06:09.475Z,31.31
2022-08-23T11:07:09.349Z,31.25
2022-08-23T11:08:09.258Z,31.29
2022-08-23T11:09:08.629Z,31.28
2022-08-23T11:10:10.023Z,31.28
2022-08-23T11:11:09.608Z,31.50
2022-08-23T11:12:11.016Z,31.66
2022-08-23T11:13:09.292Z,31.43
2022-08-23T11:14:09.980Z,31.50
2022-08-23T11:15:08.556Z,31.63
2022-08-23T11:16:08.490Z,31.72
2022-08-23T11:17:08.461Z,31.84
2022-08-23T11:18:08.469Z,31.99
2022-08-23T11:19:08.522Z,32.07
2022-08-23T11:20:10.158Z,32.15
2022-08-23T11:21:08.468Z,32.25
2022-08-23T11:22:08.624Z,32.37
2022-08-23T11:23:09.100Z,32.38
2022-08-23T11:24:08.411Z,32.37
2022-08-23T11:25:08.429Z,32.28
2022-08-23T11:26:09.071Z,32.13
2022-08-23T11:27:09.040Z,31.93
2022-08-23T11:28:08.366Z,31.75
2022-08-23T11:29:08.651Z,31.70
2022-08-23T11:30:08.291Z,31.73
2022-08-23T11:31:08.363Z,31.73
2022-08-23T11:32:08.272Z,32.07
2022-08-23T11:33:08.783Z,32.37
2022-08-23T11:34:08.254Z,32.60
2022-08-23T11:35:09.030Z,32.72
2022-08-23T11:36:08.282Z,32.92
2022-08-23T11:37:08.232Z,32.89
2022-08-23T11:38:08.234Z,32.94
2022-08-23T11:39:08.912Z,33.01
2022-08-23T11:40:08.247Z,33.04
2022-08-23T11:41:08.214Z,33.00
2022-08-23T11:42:08.172Z,32.96
2022-08-23T11:43:08.193Z,33.11
2022-08-23T11:44:08.182Z,33.37
2022-08-23T11:45:08.143Z,33.49
2022-08-23T11:46:08.951Z,33.29
2022-08-23T11:47:08.846Z,33.19
2022-08-23T11:48:08.148Z,32.99
2022-08-23T11:49:08.275Z,32.74
2022-08-23T11:50:08.274Z,32.69
2022-08-23T11:51:08.284Z,32.70
2022-08-23T11:52:08.056Z,32.59
2022-08-23T11:53:08.076Z,32.23
2022-08-23T11:54:08.963Z,32.07
2022-08-23T11:55:08.034Z,32.13
2022-08-23T11:56:08.015Z,32.25
2022-08-23T11:57:08.034Z,32.44
2022-08-23T11:58:07.995Z,32.69
2022-08-23T11:59:09.100Z,32.57
2022-08-23T12:00:08.035Z,32.57
2022-08-23T12:01:08.776Z,32.72
2022-08-23T12:02:08.000Z,32.72
2022-08-23T12:03:08.081Z,32.74
2022-08-23T12:04:08.896Z,32.82
2022-08-23T12:05:07.975Z,32.94
2022-08-23T12:06:07.919Z,32.94
2022-08-23T12:07:08.724Z,32.97
2022-08-23T12:08:08.625Z,32.99
2022-08-23T12:09:08.598Z,33.11
2022-08-23T12:10:08.207Z,33.21
2022-08-23T12:11:08.526Z,33.01
2022-08-23T12:12:07.853Z,32.87
2022-08-23T12:13:08.731Z,32.65
2022-08-23T12:14:07.838Z,32.47
2022-08-23T12:15:07.838Z,32.33
2022-08-23T12:16:16.662Z,32.60
2022-08-23T12:17:08.790Z,33.03
2022-08-23T12:18:08.158Z,33.18
2022-08-23T12:19:09.744Z,33.28
2022-08-23T12:20:13.152Z,33.35
2022-08-23T12:21:08.845Z,33.29
2022-08-23T12:22:07.730Z,33.35
2022-08-23T12:23:07.741Z,33.41
2022-08-23T12:24:07.711Z,33.44
2022-08-23T12:25:07.710Z,33.35
2022-08-23T12:26:08.429Z,33.29
2022-08-23T12:27:08.400Z,33.38
2022-08-23T12:28:08.490Z,33.38
2022-08-23T12:29:08.390Z,33.34
2022-08-23T12:30:07.651Z,33.06
2022-08-23T12:31:13.592Z,32.96
2022-08-23T12:32:08.760Z,32.88
2022-08-23T12:33:07.618Z,32.94
2022-08-23T12:34:07.617Z,33.06
2022-08-23T12:35:07.590Z,33.11
2022-08-23T12:36:07.579Z,33.18
2022-08-23T12:37:09.581Z,33.32
2022-08-23T12:38:07.552Z,33.45
2022-08-23T12:39:08.458Z,33.47
2022-08-23T12:40:08.419Z,33.35
2022-08-23T12:41:07.912Z,33.38
2022-08-23T12:42:07.554Z,33.35
2022-08-23T12:43:07.551Z,33.34
2022-08-23T12:44:07.531Z,33.45
2022-08-23T12:45:08.393Z,33.54
2022-08-23T12:46:08.414Z,33.66
2022-08-23T12:47:08.391Z,33.73
2022-08-23T12:48:08.192Z,33.78
2022-08-23T12:49:07.472Z,33.69
2022-08-23T12:50:08.423Z,33.60
2022-08-23T12:51:07.424Z,33.54
2022-08-23T12:52:07.404Z,33.53